Time,TemperatureF,DewpointF,PressureIn,WindDirection,WindDirectionDegrees,WindSpeedMPH,WindSpeedGustMPH,Humidity,HourlyPrecipIn,Conditions,Clouds,dailyrainin,SoftwareType,DateUTC
2013-03-19 00:04:00,48.6,30.7,29.79,NE,49,4.0,10.5,50,0.00,,,-99.99,FreeWX 2.04,2013-03-19 04:04:00,
2013-03-19 00:14:00,48.0,29.3,29.79,SE,128,5.0,11.0,48,0.00,,,-99.99,FreeWX 2.04,2013-03-19 04:14:00,
2013-03-19 00:24:00,47.5,28.8,29.79,ENE,61,3.0,6.9,48,0.00,,,-99.99,FreeWX 2.04,2013-03-19 04:24:00,
2013-03-19 00:34:00,47.1,27.9,29.79,East,99,4.0,7.8,47,0.00,,,-99.99,FreeWX 2.04,2013-03-19 04:34:00,
2013-03-19 00:44:00,46.8,27.1,29.79,East,100,4.0,10.5,46,0.00,,,-99.99,FreeWX 2.04,2013-03-19 04:44:00,
2013-03-19 00:54:00,46.2,25.5,29.82,East,97,4.0,9.2,44,0.00,,,-99.99,FreeWX 2.04,2013-03-19 04:54:00,
2013-03-19 01:04:00,45.9,24.6,29.82,East,93,3.0,8.3,43,0.00,,,-99.99,FreeWX 2.04,2013-03-19 05:04:00,
2013-03-19 01:14:00,45.7,25.0,29.82,ENE,78,3.0,7.4,44,0.00,,,-99.99,FreeWX 2.04,2013-03-19 05:14:00,
2013-03-19 01:24:00,45.3,23.5,29.82,ENE,61,5.0,11.6,42,0.00,,,-99.99,FreeWX 2.04,2013-03-19 05:24:00,
2013-03-19 01:34:00,45.0,22.1,29.85,ESE,116,5.0,11.0,40,0.00,,,-99.99,FreeWX 2.04,2013-03-19 05:34:00,
2013-03-19 01:44:00,44.8,21.4,29.85,ENE,57,4.0,9.2,39,0.00,,,-99.99,FreeWX 2.04,2013-03-19 05:44:00,
2013-03-19 01:54:00,44.4,21.0,29.85,SE,127,3.0,8.3,39,0.00,,,-99.99,FreeWX 2.04,2013-03-19 05:54:00,
2013-03-19 02:04:00,44.2,20.8,29.85,NNE,14,4.0,8.7,39,0.00,,,-99.99,FreeWX 2.04,2013-03-19 06:04:00,
2013-03-19 02:14:00,43.9,20.5,29.85,ENE,60,3.0,11.6,39,0.00,,,-99.99,FreeWX 2.04,2013-03-19 06:14:00,
2013-03-19 02:24:00,43.3,19.4,29.85,NE,41,5.0,10.1,38,0.00,,,-99.99,FreeWX 2.04,2013-03-19 06:24:00,
2013-03-19 02:34:00,42.8,19.0,29.88,NNE,24,4.0,9.2,38,0.00,,,-99.99,FreeWX 2.04,2013-03-19 06:34:00,
2013-03-19 02:44:00,42.1,18.3,29.88,NNE,15,2.0,4.9,38,0.00,,,-99.99,FreeWX 2.04,2013-03-19 06:44:00,
2013-03-19 02:54:00,41.5,17.8,29.88,NE,38,3.0,7.8,38,0.00,,,-99.99,FreeWX 2.04,2013-03-19 06:54:00,
2013-03-19 03:04:00,41.4,17.6,29.88,NNE,23,4.0,10.1,38,0.00,,,-99.99,FreeWX 2.04,2013-03-19 07:04:00,
2013-03-19 03:14:00,40.6,17.6,29.88,NE,42,2.0,7.4,39,0.00,,,-99.99,FreeWX 2.04,2013-03-19 07:14:00,
2013-03-19 03:24:00,40.1,17.2,29.88,NNE,25,2.0,6.7,39,0.00,,,-99.99,FreeWX 2.04,2013-03-19 07:24:00,
2013-03-19 03:34:00,39.7,17.4,29.88,East,100,2.0,5.8,40,0.00,,,-99.99,FreeWX 2.04,2013-03-19 07:34:00,
2013-03-19 03:44:00,39.4,17.1,29.88,ENE,64,2.0,7.4,40,0.00,,,-99.99,FreeWX 2.04,2013-03-19 07:44:00,
2013-03-19 03:54:00,39.2,16.9,29.91,NNE,32,2.0,6.3,40,0.00,,,-99.99,FreeWX 2.04,2013-03-19 07:54:00,
2013-03-19 04:04:00,38.7,17.1,29.91,ENE,77,2.0,5.4,41,0.00,,,-99.99,FreeWX 2.04,2013-03-19 08:04:00,
2013-03-19 04:14:00,38.5,16.9,29.91,NNE,33,3.0,6.3,41,0.00,,,-99.99,FreeWX 2.04,2013-03-19 08:14:00,
2013-03-19 04:24:00,38.1,17.1,29.91,North,10,2.0,5.4,42,0.00,,,-99.99,FreeWX 2.04,2013-03-19 08:24:00,
2013-03-19 04:34:00,37.9,16.9,29.91,ENE,78,2.0,4.9,42,0.00,,,-99.99,FreeWX 2.04,2013-03-19 08:34:00,
2013-03-19 04:44:00,37.8,17.2,29.91,North,-999,0.0,5.4,43,0.00,,,-99.99,FreeWX 2.04,2013-03-19 08:44:00,
2013-03-19 04:54:00,37.9,18.5,29.91,North,354,1.0,5.4,45,0.00,,,-99.99,FreeWX 2.04,2013-03-19 08:54:00,
2013-03-19 05:04:00,37.9,18.5,29.91,North,352,1.0,4.9,45,0.00,,,-99.99,FreeWX 2.04,2013-03-19 09:04:00,
2013-03-19 05:14:00,37.9,19.0,29.91,North,353,1.0,4.9,46,0.00,,,-99.99,FreeWX 2.04,2013-03-19 09:14:00,
2013-03-19 05:24:00,37.9,19.0,29.91,North,-999,0.0,4.9,46,0.00,,,-99.99,FreeWX 2.04,2013-03-19 09:24:00,
2013-03-19 05:34:00,37.9,19.6,29.91,NNE,24,1.0,5.8,47,0.00,,,-99.99,FreeWX 2.04,2013-03-19 09:34:00,
2013-03-19 05:44:00,37.8,19.4,29.91,North,-999,0.0,3.6,47,0.00,,,-99.99,FreeWX 2.04,2013-03-19 09:44:00,
2013-03-19 05:54:00,37.8,20.3,29.91,NNE,14,2.0,6.3,49,0.00,,,-99.99,FreeWX 2.04,2013-03-19 09:54:00,
2013-03-19 06:04:00,37.4,19.6,29.91,North,-999,0.0,4.0,48,0.00,,,-99.99,FreeWX 2.04,2013-03-19 10:04:00,
2013-03-19 06:14:00,37.6,20.7,29.91,ENE,59,1.0,5.8,50,0.00,,,-99.99,FreeWX 2.04,2013-03-19 10:14:00,
2013-03-19 06:24:00,37.9,21.0,29.91,North,358,2.0,6.3,50,0.00,,,-99.99,FreeWX 2.04,2013-03-19 10:24:00,
2013-03-19 06:34:00,38.1,21.6,29.91,NE,34,3.0,12.1,51,0.00,,,-99.99,FreeWX 2.04,2013-03-19 10:34:00,
2013-03-19 06:44:00,38.1,21.2,29.91,NNE,22,4.0,9.6,50,0.00,,,-99.99,FreeWX 2.04,2013-03-19 10:44:00,
2013-03-19 06:54:00,38.3,20.8,29.91,East,93,5.0,11.6,49,0.00,,,-99.99,FreeWX 2.04,2013-03-19 10:54:00,
2013-03-19 07:04:00,38.5,19.0,29.91,ENE,70,4.0,12.5,45,0.00,,,-99.99,FreeWX 2.04,2013-03-19 11:04:00,
2013-03-19 07:15:00,38.1,17.6,29.91,ENE,72,4.0,11.0,43,0.00,,,-99.99,FreeWX 2.04,2013-03-19 11:15:00,
2013-03-19 07:25:00,37.9,17.4,29.91,ENE,72,4.0,12.1,43,0.00,,,-99.99,FreeWX 2.04,2013-03-19 11:25:00,
2013-03-19 07:35:00,37.6,17.1,29.91,ENE,59,4.0,7.8,43,0.00,,,-99.99,FreeWX 2.04,2013-03-19 11:35:00,
2013-03-19 07:45:00,37.2,16.9,29.91,NE,47,3.0,8.3,43,0.00,,,-99.99,FreeWX 2.04,2013-03-19 11:45:00,
2013-03-19 07:55:00,37.4,17.4,29.94,NE,56,4.0,10.5,44,0.00,,,-99.99,FreeWX 2.04,2013-03-19 11:55:00,
2013-03-19 08:05:00,37.6,17.6,29.94,ENE,64,4.0,13.9,44,0.00,,,-99.99,FreeWX 2.04,2013-03-19 12:05:00,
2013-03-19 08:15:00,37.8,17.8,29.94,NE,44,4.0,8.7,44,0.00,,,-99.99,FreeWX 2.04,2013-03-19 12:15:00,
2013-03-19 08:25:00,38.1,17.6,29.94,NE,44,4.0,8.7,43,0.00,,,-99.99,FreeWX 2.04,2013-03-19 12:25:00,
2013-03-19 08:35:00,38.7,16.5,29.91,NNW,348,4.0,10.5,40,0.00,,,-99.99,FreeWX 2.04,2013-03-19 12:35:00,
2013-03-19 08:45:00,39.2,16.9,29.91,North,9,5.0,11.2,40,0.00,,,-99.99,FreeWX 2.04,2013-03-19 12:45:00,
2013-03-19 08:55:00,39.6,16.7,29.91,ESE,103,4.0,11.0,39,0.00,,,-99.99,FreeWX 2.04,2013-03-19 12:55:00,
2013-03-19 09:05:00,40.1,17.2,29.94,ENE,59,4.0,6.9,39,0.00,,,-99.99,FreeWX 2.04,2013-03-19 13:05:00,
2013-03-19 09:15:00,40.5,13.6,29.94,ENE,72,5.0,11.6,33,0.00,,,-99.99,FreeWX 2.04,2013-03-19 13:15:00,
2013-03-19 09:25:00,41.0,14.7,29.94,ENE,59,4.0,11.6,34,0.00,,,-99.99,FreeWX 2.04,2013-03-19 13:25:00,
2013-03-19 09:35:00,41.5,12.4,29.94,East,93,6.0,13.0,30,0.00,,,-99.99,FreeWX 2.04,2013-03-19 13:35:00,
2013-03-19 09:45:00,41.7,11.8,29.94,ENE,67,6.0,14.3,29,0.00,,,-99.99,FreeWX 2.04,2013-03-19 13:45:00,
2013-03-19 09:55:00,42.3,12.4,29.97,ENE,72,6.0,12.5,29,0.00,,,-99.99,FreeWX 2.04,2013-03-19 13:55:00,
2013-03-19 10:05:00,42.3,11.5,29.97,ENE,75,7.0,17.2,28,0.00,,,-99.99,FreeWX 2.04,2013-03-19 14:05:00,
2013-03-19 10:15:00,42.4,11.7,29.97,East,82,8.0,19.0,28,0.00,,,-99.99,FreeWX 2.04,2013-03-19 14:15:00,
2013-03-19 10:25:00,42.8,9.5,29.97,East,87,7.0,14.8,25,0.00,,,-99.99,FreeWX 2.04,2013-03-19 14:25:00,
2013-03-19 10:35:00,43.5,8.2,29.97,East,95,6.0,14.3,23,0.00,,,-99.99,FreeWX 2.04,2013-03-19 14:35:00,
2013-03-19 10:45:00,44.1,7.7,29.97,ESE,106,6.0,13.9,22,0.00,,,-99.99,FreeWX 2.04,2013-03-19 14:45:00,
2013-03-19 10:55:00,45.7,9.0,29.97,East,84,4.0,10.1,22,0.00,,,-99.99,FreeWX 2.04,2013-03-19 14:55:00,
2013-03-19 11:05:00,46.0,9.3,29.97,NE,40,6.0,14.3,22,0.00,,,-99.99,FreeWX 2.04,2013-03-19 15:05:00,
2013-03-19 11:15:00,45.9,9.1,29.97,ENE,78,7.0,15.2,22,0.00,,,-99.99,FreeWX 2.04,2013-03-19 15:15:00,
2013-03-19 11:25:00,46.4,9.7,29.97,East,93,7.0,15.4,22,0.00,,,-99.99,FreeWX 2.04,2013-03-19 15:25:00,
2013-03-19 11:35:00,46.6,6.6,29.97,East,92,6.0,14.8,19,0.00,,,-99.99,FreeWX 2.04,2013-03-19 15:35:00,
2013-03-19 11:45:00,47.1,7.0,29.97,NNE,19,6.0,16.8,19,0.00,,,-99.99,FreeWX 2.04,2013-03-19 15:45:00,
2013-03-19 11:55:00,47.3,7.2,29.97,East,88,8.0,20.6,19,0.00,,,-99.99,FreeWX 2.04,2013-03-19 15:55:00,
2013-03-19 12:05:00,47.3,7.2,30.00,East,93,8.0,18.6,19,0.00,,,-99.99,FreeWX 2.04,2013-03-19 16:05:00,
2013-03-19 12:15:00,47.7,7.5,30.00,ESE,103,7.0,17.2,19,0.00,,,-99.99,FreeWX 2.04,2013-03-19 16:15:00,
2013-03-19 12:25:00,49.1,8.6,29.97,NE,51,7.0,15.4,19,0.00,,,-99.99,FreeWX 2.04,2013-03-19 16:25:00,
2013-03-19 12:35:00,49.6,9.1,29.97,NE,35,5.0,12.5,19,0.00,,,-99.99,FreeWX 2.04,2013-03-19 16:35:00,
2013-03-19 12:45:00,50.9,9.0,29.97,ENE,61,7.0,16.8,18,0.00,,,-99.99,FreeWX 2.04,2013-03-19 16:45:00,
2013-03-19 12:55:00,49.8,9.3,29.97,East,87,8.0,19.9,19,0.00,,,-99.99,FreeWX 2.04,2013-03-19 16:55:00,
2013-03-19 13:05:00,50.4,9.7,29.97,East,89,6.0,17.2,19,0.00,,,-99.99,FreeWX 2.04,2013-03-19 17:05:00,
2013-03-19 13:15:00,50.9,9.0,29.97,ENE,68,7.0,17.7,18,0.00,,,-99.99,FreeWX 2.04,2013-03-19 17:15:00,
2013-03-19 13:25:00,51.1,9.1,29.97,ESE,115,8.0,19.0,18,0.00,,,-99.99,FreeWX 2.04,2013-03-19 17:25:00,
2013-03-19 13:35:00,50.7,10.0,30.00,East,99,8.0,15.9,19,0.00,,,-99.99,FreeWX 2.04,2013-03-19 17:35:00,
2013-03-19 13:45:00,51.3,9.1,30.00,ESE,122,8.0,16.3,18,0.00,,,-99.99,FreeWX 2.04,2013-03-19 17:45:00,
2013-03-19 13:55:00,53.1,13.1,30.00,East,97,6.0,16.3,20,0.00,,,-99.99,FreeWX 2.04,2013-03-19 17:55:00,
2013-03-19 14:05:00,52.7,13.8,30.00,ESE,104,7.0,17.7,21,0.00,,,-99.99,FreeWX 2.04,2013-03-19 18:05:00,
2013-03-19 14:15:00,52.9,12.9,30.00,ENE,72,8.0,17.7,20,0.00,,,-99.99,FreeWX 2.04,2013-03-19 18:15:00,
2013-03-19 14:25:00,53.4,13.5,30.00,ENE,69,7.0,15.9,20,0.00,,,-99.99,FreeWX 2.04,2013-03-19 18:25:00,
2013-03-19 14:35:00,54.0,13.8,29.97,East,90,6.0,15.9,20,0.00,,,-99.99,FreeWX 2.04,2013-03-19 18:35:00,
2013-03-19 14:45:00,53.8,13.6,29.97,NE,48,6.0,15.2,20,0.00,,,-99.99,FreeWX 2.04,2013-03-19 18:45:00,
2013-03-19 14:55:00,53.6,13.5,29.97,ENE,69,6.0,13.0,20,0.00,,,-99.99,FreeWX 2.04,2013-03-19 18:55:00,
2013-03-19 15:05:00,53.8,13.6,30.00,East,101,7.0,17.7,20,0.00,,,-99.99,FreeWX 2.04,2013-03-19 19:05:00,
2013-03-19 15:15:00,54.0,13.8,30.00,ENE,70,8.0,18.1,20,0.00,,,-99.99,FreeWX 2.04,2013-03-19 19:15:00,
2013-03-19 15:25:00,54.3,14.2,30.00,ENE,62,7.0,15.2,20,0.00,,,-99.99,FreeWX 2.04,2013-03-19 19:25:00,
2013-03-19 15:35:00,54.5,14.2,30.00,NE,55,7.0,19.5,20,0.00,,,-99.99,FreeWX 2.04,2013-03-19 19:35:00,
2013-03-19 15:45:00,53.8,13.6,30.00,East,81,8.0,19.5,20,0.00,,,-99.99,FreeWX 2.04,2013-03-19 19:45:00,
2013-03-19 15:55:00,54.1,14.0,29.97,East,82,7.0,16.3,20,0.00,,,-99.99,FreeWX 2.04,2013-03-19 19:55:00,
2013-03-19 16:05:00,54.3,14.2,30.00,East,81,7.0,19.5,20,0.00,,,-99.99,FreeWX 2.04,2013-03-19 20:05:00,
2013-03-19 16:15:00,54.1,14.0,30.00,ESE,102,6.0,12.5,20,0.00,,,-99.99,FreeWX 2.04,2013-03-19 20:15:00,
2013-03-19 16:25:00,53.8,13.6,30.00,ESE,113,7.0,17.7,20,0.00,,,-99.99,FreeWX 2.04,2013-03-19 20:25:00,
2013-03-19 16:35:00,54.0,13.8,30.00,ENE,57,6.0,14.3,20,0.00,,,-99.99,FreeWX 2.04,2013-03-19 20:35:00,
2013-03-19 16:45:00,53.6,13.5,30.00,SE,126,6.0,14.8,20,0.00,,,-99.99,FreeWX 2.04,2013-03-19 20:45:00,
2013-03-19 16:55:00,52.3,13.6,30.03,East,99,5.0,13.4,21,0.00,,,-99.99,FreeWX 2.04,2013-03-19 20:55:00,
2013-03-19 17:05:00,51.1,9.1,30.03,ESE,107,7.0,17.7,18,0.00,,,-99.99,FreeWX 2.04,2013-03-19 21:05:00,
2013-03-19 17:15:00,50.7,12.2,30.03,East,83,5.0,11.2,21,0.00,,,-99.99,FreeWX 2.04,2013-03-19 21:15:00,
2013-03-19 17:25:00,50.2,9.5,30.03,East,93,6.0,11.2,19,0.00,,,-99.99,FreeWX 2.04,2013-03-19 21:25:00,
2013-03-19 17:35:00,49.6,9.1,30.03,NE,42,5.0,9.6,19,0.00,,,-99.99,FreeWX 2.04,2013-03-19 21:35:00,
2013-03-19 17:45:00,49.1,8.6,30.03,East,88,5.0,12.5,19,0.00,,,-99.99,FreeWX 2.04,2013-03-19 21:45:00,
2013-03-19 17:55:00,48.7,8.4,30.03,East,100,5.0,11.2,19,0.00,,,-99.99,FreeWX 2.04,2013-03-19 21:55:00,
2013-03-19 18:05:00,48.2,7.9,30.03,East,87,6.0,16.8,19,0.00,,,-99.99,FreeWX 2.04,2013-03-19 22:05:00,
2013-03-19 18:15:00,47.5,7.3,30.03,East,79,4.0,9.2,19,0.00,,,-99.99,FreeWX 2.04,2013-03-19 22:15:00,
2013-03-19 18:25:00,47.3,7.2,30.03,ESE,111,5.0,13.9,19,0.00,,,-99.99,FreeWX 2.04,2013-03-19 22:25:00,
2013-03-19 18:35:00,46.8,6.8,30.03,ESE,115,4.0,11.2,19,0.00,,,-99.99,FreeWX 2.04,2013-03-19 22:35:00,
2013-03-19 18:45:00,46.4,6.4,30.03,East,94,4.0,9.2,19,0.00,,,-99.99,FreeWX 2.04,2013-03-19 22:45:00,
2013-03-19 18:55:00,46.2,6.3,30.03,East,80,4.0,9.6,19,0.00,,,-99.99,FreeWX 2.04,2013-03-19 22:55:00,
2013-03-19 19:05:00,45.7,5.9,30.03,East,99,5.0,13.4,19,0.00,,,-99.99,FreeWX 2.04,2013-03-19 23:05:00,
2013-03-19 19:15:00,45.3,6.6,30.03,East,93,5.0,11.0,20,0.00,,,-99.99,FreeWX 2.04,2013-03-19 23:15:00,
2013-03-19 19:25:00,44.8,6.3,30.03,East,80,4.0,9.6,20,0.00,,,-99.99,FreeWX 2.04,2013-03-19 23:25:00,
2013-03-19 19:35:00,44.1,5.5,30.03,NE,47,4.0,9.6,20,0.00,,,-99.99,FreeWX 2.04,2013-03-19 23:35:00,
2013-03-19 19:45:00,43.5,5.2,30.03,East,80,3.0,6.9,20,0.00,,,-99.99,FreeWX 2.04,2013-03-19 23:45:00,
2013-03-19 19:55:00,42.8,4.5,30.06,ESE,103,2.0,5.8,20,0.00,,,-99.99,FreeWX 2.04,2013-03-19 23:55:00,
2013-03-19 20:05:00,42.3,4.1,30.06,East,92,1.0,4.5,20,0.00,,,-99.99,FreeWX 2.04,2013-03-20 00:05:00,
2013-03-19 20:15:00,42.1,3.9,30.06,ENE,65,4.0,7.8,20,0.00,,,-99.99,FreeWX 2.04,2013-03-20 00:15:00,
2013-03-19 20:25:00,42.1,3.9,30.06,ESE,103,4.0,7.8,20,0.00,,,-99.99,FreeWX 2.04,2013-03-20 00:25:00,
2013-03-19 20:35:00,41.5,4.5,30.06,NE,41,3.0,6.9,21,0.00,,,-99.99,FreeWX 2.04,2013-03-20 00:35:00,
2013-03-19 20:45:00,41.0,4.1,30.06,ENE,64,2.0,6.9,21,0.00,,,-99.99,FreeWX 2.04,2013-03-20 00:45:00,
2013-03-19 20:55:00,40.6,3.7,30.06,ENE,71,1.0,4.9,21,0.00,,,-99.99,FreeWX 2.04,2013-03-20 00:55:00,
2013-03-19 21:05:00,40.5,3.6,30.06,ENE,59,3.0,10.1,21,0.00,,,-99.99,FreeWX 2.04,2013-03-20 01:05:00,
2013-03-19 21:15:00,40.6,3.7,30.06,East,80,3.0,10.5,21,0.00,,,-99.99,FreeWX 2.04,2013-03-20 01:15:00,
2013-03-19 21:25:00,40.3,3.6,30.06,NE,49,2.0,5.4,21,0.00,,,-99.99,FreeWX 2.04,2013-03-20 01:25:00,
2013-03-19 21:35:00,39.9,3.2,30.09,ESE,123,2.0,5.4,21,0.00,,,-99.99,FreeWX 2.04,2013-03-20 01:35:00,
2013-03-19 21:45:00,39.7,3.0,30.09,NE,43,1.0,4.5,21,0.00,,,-99.99,FreeWX 2.04,2013-03-20 01:45:00,
2013-03-19 21:56:00,39.2,2.7,30.09,North,-999,0.0,3.6,21,0.00,,,-99.99,FreeWX 2.04,2013-03-20 01:56:00,
2013-03-19 22:06:00,38.8,2.3,30.09,ESE,115,1.0,5.4,21,0.00,,,-99.99,FreeWX 2.04,2013-03-20 02:06:00,
2013-03-19 22:16:00,38.7,2.1,30.09,East,84,1.0,4.0,21,0.00,,,-99.99,FreeWX 2.04,2013-03-20 02:16:00,
2013-03-19 22:26:00,38.5,1.9,30.09,SE,125,1.0,4.9,21,0.00,,,-99.99,FreeWX 2.04,2013-03-20 02:26:00,
2013-03-19 22:36:00,38.3,1.8,30.09,North,2,2.0,5.4,21,0.00,,,-99.99,FreeWX 2.04,2013-03-20 02:36:00,
2013-03-19 22:46:00,37.9,1.6,30.09,North,-999,0.0,4.9,21,0.00,,,-99.99,FreeWX 2.04,2013-03-20 02:46:00,
2013-03-19 22:56:00,37.6,1.2,30.09,North,-999,0.0,0.0,21,0.00,,,-99.99,FreeWX 2.04,2013-03-20 02:56:00,
2013-03-19 23:06:00,37.0,0.9,30.09,North,-999,0.0,4.9,21,0.00,,,-99.99,FreeWX 2.04,2013-03-20 03:06:00,
2013-03-19 23:16:00,36.7,0.5,30.09,ESE,117,1.0,6.7,21,0.00,,,-99.99,FreeWX 2.04,2013-03-20 03:16:00,
2013-03-19 23:26:00,36.7,0.5,30.09,East,79,2.0,6.7,21,0.00,,,-99.99,FreeWX 2.04,2013-03-20 03:26:00,
2013-03-19 23:36:00,36.3,1.2,30.09,NE,35,2.0,6.7,22,0.00,,,-99.99,FreeWX 2.04,2013-03-20 03:36:00,
2013-03-19 23:46:00,36.3,1.2,30.09,NE,49,2.0,4.5,22,0.00,,,-99.99,FreeWX 2.04,2013-03-20 03:46:00,
2013-03-19 23:56:00,36.3,1.2,30.09,NNE,19,1.0,5.4,22,0.00,,,-99.99,FreeWX 2.04,2013-03-20 03:56:00,